createdAt,value
2023-01-23T00:00:09.520Z,94293.09
2023-01-23T00:02:37.918Z,94303.91
2023-01-23T00:05:06.824Z,94306.66
2023-01-23T00:07:34.636Z,94293.09
2023-01-23T00:10:02.424Z,94301.50
2023-01-23T00:12:30.349Z,94313.28
2023-01-23T00:14:59.682Z,94318.31
2023-01-23T00:17:28.179Z,94318.47
2023-01-23T00:19:56.140Z,94321.53
2023-01-23T00:22:23.968Z,94315.06
2023-01-23T00:24:51.817Z,94300.03
2023-01-23T00:27:19.862Z,94315.88
2023-01-23T00:29:48.541Z,94333.50
2023-01-23T00:32:17.881Z,94345.16
2023-01-23T00:34:46.477Z,94340.31
2023-01-23T00:37:15.013Z,94347.09
2023-01-23T00:39:43.032Z,94361.34
2023-01-23T00:42:10.953Z,94358.09
2023-01-23T00:44:39.251Z,94339.34
2023-01-23T00:47:07.552Z,94354.88
2023-01-23T00:49:37.252Z,94379.78
2023-01-23T00:52:05.610Z,94360.22
2023-01-23T00:54:33.929Z,94385.63
2023-01-23T00:57:01.993Z,94399.84
2023-01-23T00:59:29.982Z,94400.50
2023-01-23T01:01:57.944Z,94415.72
2023-01-23T01:04:25.967Z,94404.06
2023-01-23T01:06:55.600Z,94371.22
2023-01-23T01:09:23.998Z,94399.69
2023-01-23T01:11:52.575Z,94412.31
2023-01-23T01:14:20.542Z,94411.50
2023-01-23T01:16:49.130Z,94411.50
2023-01-23T01:19:19.101Z,94432.53
2023-01-23T01:21:48.708Z,94430.91
2023-01-23T01:24:17.980Z,94425.72
2023-01-23T01:26:46.071Z,94425.72
2023-01-23T01:29:14.004Z,94431.56
2023-01-23T01:31:41.940Z,94423.47
2023-01-23T01:34:09.853Z,94442.56
2023-01-23T01:36:37.913Z,94467.84
2023-01-23T01:39:06.060Z,94450.81
2023-01-23T01:41:35.803Z,94469.13
2023-01-23T01:44:04.256Z,94468.47
2023-01-23T01:46:33.164Z,94464.28
2023-01-23T01:49:06.938Z,94444.19
2023-01-23T01:51:39.378Z,94451.78
2023-01-23T01:54:15.844Z,94449.38
2023-01-23T01:56:50.600Z,94434.97
2023-01-23T01:59:20.245Z,94434.78
2023-01-23T02:01:51.440Z,94453.56
2023-01-23T02:04:19.583Z,94456.16
2023-01-23T02:06:48.166Z,94449.03
2023-01-23T02:09:20.129Z,94431.72
2023-01-23T02:11:50.286Z,94467.03
2023-01-23T02:14:18.428Z,94456.81
2023-01-23T02:16:51.077Z,94451.94
2023-01-23T02:19:34.139Z,94424.44
2023-01-23T02:22:08.997Z,94459.41
2023-01-23T02:24:40.307Z,94454.53
2023-01-23T02:27:09.848Z,94448.38
2023-01-23T02:29:45.131Z,94463.63
2023-01-23T02:32:13.528Z,94437.38
2023-01-23T02:34:43.691Z,94454.22
2023-01-23T02:37:11.627Z,94450.81
2023-01-23T02:39:39.700Z,94459.41
2023-01-23T02:42:09.528Z,94473.03
2023-01-23T02:44:37.463Z,94462.66
2023-01-23T02:47:11.867Z,94442.56
2023-01-23T02:49:40.415Z,94406.00
2023-01-23T02:52:09.667Z,94385.63
2023-01-23T02:54:38.080Z,94366.38
2023-01-23T02:57:05.956Z,94399.22
2023-01-23T02:59:53.223Z,94384.00
2023-01-23T03:02:21.063Z,94353.41
2023-01-23T03:04:48.884Z,94358.78
2023-01-23T03:07:16.794Z,94345.16
2023-01-23T03:09:47.808Z,94331.25
2023-01-23T03:12:16.155Z,94302.16
2023-01-23T03:14:45.474Z,94329.47
2023-01-23T03:17:14.983Z,94330.28
2023-01-23T03:19:42.776Z,94308.28
2023-01-23T03:22:10.701Z,94287.25
2023-01-23T03:24:39.143Z,94281.44
2023-01-23T03:27:06.925Z,94287.44
2023-01-23T03:29:52.774Z,94264.63
2023-01-23T03:32:22.568Z,94274.03
2023-01-23T03:34:50.485Z,94282.44
2023-01-23T03:37:19.721Z,94289.84
2023-01-23T03:40:07.212Z,94293.41
2023-01-23T03:42:35.775Z,94310.06
2023-01-23T03:45:04.124Z,94320.59
2023-01-23T03:47:33.334Z,94309.91
2023-01-23T03:50:01.194Z,94309.91
2023-01-23T03:52:29.052Z,94296.66
2023-01-23T03:54:57.051Z,94282.44
2023-01-23T03:57:25.033Z,94265.31
2023-01-23T03:59:52.859Z,94267.41
2023-01-23T04:02:20.781Z,94266.59
2023-01-23T04:04:50.097Z,94232.94
2023-01-23T04:07:17.973Z,94229.72
2023-01-23T04:09:45.921Z,94259.78
2023-01-23T04:12:13.738Z,94285.00
2023-01-23T04:14:41.687Z,94306.66
2023-01-23T04:17:10.005Z,94302.31
2023-01-23T04:19:37.832Z,94318.31
2023-01-23T04:22:07.057Z,94299.41
2023-01-23T04:24:35.161Z,94314.09
2023-01-23T04:27:02.998Z,94331.09
2023-01-23T04:29:30.872Z,94304.25
2023-01-23T04:31:58.704Z,94327.06
2023-01-23T04:34:26.636Z,94327.06
2023-01-23T04:36:54.459Z,94281.44
2023-01-23T04:39:23.701Z,94262.22
2023-01-23T04:41:51.551Z,94249.44
2023-01-23T04:44:22.176Z,94258.19
2023-01-23T04:46:51.124Z,94247.50
2023-01-23T04:49:19.540Z,94259.78
2023-01-23T04:51:48.423Z,94267.41
2023-01-23T04:54:16.446Z,94277.25
2023-01-23T04:56:45.924Z,94277.25
2023-01-23T04:59:14.180Z,94282.59
2023-01-23T05:01:42.007Z,94271.44
2023-01-23T05:04:09.822Z,94259.78
2023-01-23T05:06:38.020Z,94254.63
2023-01-23T05:09:05.874Z,94255.59
2023-01-23T05:11:33.864Z,94279.84
2023-01-23T05:14:03.026Z,94261.41
2023-01-23T05:16:31.058Z,94237.78
2023-01-23T05:18:58.911Z,94223.91
2023-01-23T05:21:26.764Z,94212.56
2023-01-23T05:23:54.726Z,94222.59
2023-01-23T05:26:22.637Z,94226.81
2023-01-23T05:28:50.485Z,94226.94
2023-01-23T05:31:19.836Z,94212.25
2023-01-23T05:33:48.018Z,94233.75
2023-01-23T05:36:18.358Z,94208.69
2023-01-23T05:38:46.507Z,94237.31
2023-01-23T05:41:14.451Z,94226.16
2023-01-23T05:43:42.335Z,94211.28
2023-01-23T05:46:10.258Z,94179.28
2023-01-23T05:48:39.491Z,94210.94
2023-01-23T05:51:07.387Z,94204.50
2023-01-23T05:53:35.154Z,94220.34
2023-01-23T05:56:06.922Z,94208.53
2023-01-23T05:58:34.958Z,94214.50
2023-01-23T06:01:03.625Z,94182.22
2023-01-23T06:03:31.524Z,94190.13
2023-01-23T06:06:02.030Z,94202.88
2023-01-23T06:08:29.897Z,94170.25
2023-01-23T06:10:59.751Z,94141.50
2023-01-23T06:13:27.868Z,94125.63
2023-01-23T06:15:56.120Z,94069.63
2023-01-23T06:18:24.118Z,94021.50
2023-01-23T06:20:52.050Z,94026.00
2023-01-23T06:23:21.404Z,94025.19
2023-01-23T06:25:49.171Z,94006.81
2023-01-23T06:28:17.073Z,93997.44
2023-01-23T06:30:44.989Z,94018.41
2023-01-23T06:33:12.865Z,94024.38
2023-01-23T06:35:41.255Z,94026.97
2023-01-23T06:38:09.309Z,94033.28
2023-01-23T06:40:42.096Z,94061.38
2023-01-23T06:43:10.040Z,94065.59
2023-01-23T06:45:37.893Z,94021.81
2023-01-23T06:48:05.871Z,94004.03
2023-01-23T06:50:33.761Z,93990.03
2023-01-23T06:53:01.601Z,94004.38
2023-01-23T06:55:29.436Z,94011.81
2023-01-23T06:57:58.722Z,94000.03
2023-01-23T07:00:27.132Z,94001.97
2023-01-23T07:02:58.877Z,93961.81
2023-01-23T07:05:26.766Z,94004.22
2023-01-23T07:07:54.619Z,93999.38
2023-01-23T07:10:23.095Z,93953.25
2023-01-23T07:12:51.417Z,93978.44
2023-01-23T07:15:20.979Z,93971.66
2023-01-23T07:17:48.725Z,93985.66
2023-01-23T07:20:17.001Z,93990.03
2023-01-23T07:22:45.139Z,94017.59
2023-01-23T07:25:12.970Z,94058.00
2023-01-23T07:27:41.109Z,94055.25
2023-01-23T07:30:10.737Z,94077.22
2023-01-23T07:32:39.939Z,94070.09
2023-01-23T07:35:09.180Z,94068.47
2023-01-23T07:37:37.556Z,94073.00
2023-01-23T07:40:06.220Z,94078.47
2023-01-23T07:42:33.998Z,94090.44
2023-01-23T07:45:02.050Z,94073.66
2023-01-23T07:47:29.834Z,94077.84
2023-01-23T07:49:59.013Z,94087.69
2023-01-23T07:52:26.940Z,94094.00
2023-01-23T07:54:54.695Z,94075.59
2023-01-23T07:57:22.520Z,94044.44
2023-01-23T07:59:50.348Z,94036.84
2023-01-23T08:02:18.270Z,94062.03
2023-01-23T08:04:46.100Z,94047.66
2023-01-23T08:07:15.334Z,94050.41
2023-01-23T08:09:43.396Z,94077.84
2023-01-23T08:12:12.778Z,94094.63
2023-01-23T08:14:41.582Z,94072.66
2023-01-23T08:17:09.409Z,94064.63
2023-01-23T08:19:37.230Z,94066.84
2023-01-23T08:22:05.889Z,94065.25
2023-01-23T08:24:35.095Z,94072.03
2023-01-23T08:27:03.073Z,94048.47
2023-01-23T08:29:32.549Z,94062.66
2023-01-23T08:32:00.662Z,94074.63
2023-01-23T08:34:28.588Z,94086.88
2023-01-23T08:36:56.553Z,94129.03
2023-01-23T08:39:24.984Z,94143.09
2023-01-23T08:41:55.428Z,94157.31
2023-01-23T08:44:23.264Z,94180.91
2023-01-23T08:46:51.255Z,94138.91
2023-01-23T08:49:20.411Z,94133.22
2023-01-23T08:51:51.363Z,94139.38
2023-01-23T08:54:19.155Z,94167.66
2023-01-23T08:56:46.970Z,94189.31
2023-01-23T08:59:16.184Z,94205.31
2023-01-23T09:01:43.985Z,94215.31
2023-01-23T09:04:11.770Z,94240.22
2023-01-23T09:06:39.777Z,94253.66
2023-01-23T09:09:09.400Z,94289.06
2023-01-23T09:11:37.332Z,94261.06
2023-01-23T09:14:05.250Z,94259.00
2023-01-23T09:16:34.592Z,94277.25
2023-01-23T09:19:02.415Z,94286.28
2023-01-23T09:21:30.278Z,94303.09
2023-01-23T09:23:58.179Z,94363.63
2023-01-23T09:26:26.094Z,94410.84
2023-01-23T09:28:53.865Z,94350.34
2023-01-23T09:31:21.671Z,94293.88
2023-01-23T09:33:51.134Z,94297.47
2023-01-23T09:36:20.624Z,94267.41
2023-01-23T09:38:53.185Z,94275.63
2023-01-23T09:41:24.852Z,94241.16
2023-01-23T09:43:57.431Z,94226.63
2023-01-23T09:46:29.823Z,94199.31
2023-01-23T09:49:04.220Z,94173.31
2023-01-23T09:51:42.441Z,94172.84
2023-01-23T09:54:20.180Z,94196.09
2023-01-23T09:56:50.347Z,94238.75
2023-01-23T09:59:29.011Z,94257.84
2023-01-23T10:01:57.566Z,94251.38
2023-01-23T10:04:26.759Z,94250.72
2023-01-23T10:07:13.612Z,94162.50
2023-01-23T10:09:51.366Z,94180.75
2023-01-23T10:12:33.520Z,94195.13
2023-01-23T10:15:34.541Z,94253.00
2023-01-23T10:18:16.169Z,94235.72
2023-01-23T10:21:10.789Z,94290.19
2023-01-23T10:23:48.377Z,94241.34
2023-01-23T10:26:21.579Z,94142.59
2023-01-23T10:28:50.583Z,94181.06
2023-01-23T10:31:32.053Z,94211.13
2023-01-23T10:34:08.745Z,94257.38
2023-01-23T10:36:53.744Z,94262.22
2023-01-23T10:39:27.825Z,94284.69
2023-01-23T10:42:01.978Z,94309.72
2023-01-23T10:44:32.385Z,94357.63
2023-01-23T10:47:03.908Z,94372.19
2023-01-23T10:49:35.116Z,94359.56
2023-01-23T10:52:04.900Z,94357.13
2023-01-23T10:54:47.034Z,94371.06
2023-01-23T10:57:24.661Z,94415.06
2023-01-23T10:59:56.962Z,94425.25
2023-01-23T11:02:29.890Z,94494.72
2023-01-23T11:04:58.695Z,94536.63
2023-01-23T11:07:29.261Z,94586.38
2023-01-23T11:09:59.579Z,94583.78
2023-01-23T11:12:28.927Z,94598.22
2023-01-23T11:15:21.472Z,94606.31
2023-01-23T11:17:50.717Z,94625.75
2023-01-23T11:20:28.314Z,94655.22
2023-01-23T11:23:06.521Z,94617.66
2023-01-23T11:25:38.128Z,94603.06
2023-01-23T11:28:23.433Z,94653.59
2023-01-23T11:31:07.921Z,94629.94
2023-01-23T11:33:47.592Z,94613.91
2023-01-23T11:36:37.722Z,94626.72
2023-01-23T11:39:17.359Z,94572.09
2023-01-23T11:41:47.234Z,94603.88
2023-01-23T11:44:19.184Z,94604.19
2023-01-23T11:47:02.600Z,94583.78
2023-01-23T11:49:51.451Z,94619.09
2023-01-23T11:52:31.829Z,94669.66
2023-01-23T11:55:28.121Z,94643.41
2023-01-23T11:58:04.869Z,94643.56
2023-01-23T12:00:39.226Z,94680.50
2023-01-23T12:03:31.058Z,94678.72
2023-01-23T12:06:36.015Z,94635.94
2023-01-23T12:09:10.637Z,94673.88
2023-01-23T12:11:52.451Z,94646.97
2023-01-23T12:14:26.233Z,94680.38
2023-01-23T12:17:12.417Z,94688.81
2023-01-23T12:20:11.379Z,94659.59
2023-01-23T12:22:55.636Z,94595.44
2023-01-23T12:25:31.141Z,94609.88
2023-01-23T12:28:06.995Z,94594.16
2023-01-23T12:30:56.506Z,94577.28
2023-01-23T12:33:36.900Z,94619.09
2023-01-23T12:36:20.781Z,94636.59
2023-01-23T12:38:57.932Z,94623.97
2023-01-23T12:41:36.413Z,94595.78
2023-01-23T12:44:12.503Z,94572.91
2023-01-23T12:46:46.187Z,94537.78
2023-01-23T12:49:27.382Z,94477.88
2023-01-23T12:52:01.490Z,94464.56
2023-01-23T12:54:36.944Z,94431.72
2023-01-23T12:57:07.431Z,94426.53
2023-01-23T12:59:49.917Z,94457.78
2023-01-23T13:02:26.794Z,94451.16
2023-01-23T13:05:10.957Z,94485.66
2023-01-23T13:07:47.273Z,94494.72
2023-01-23T13:10:26.752Z,94505.06
2023-01-23T13:12:57.315Z,94470.28
2023-01-23T13:15:39.853Z,94499.91
2023-01-23T13:18:23.524Z,94483.38
2023-01-23T13:21:15.657Z,94503.13
2023-01-23T13:23:43.652Z,94531.63
2023-01-23T13:26:29.025Z,94542.63
2023-01-23T13:28:58.728Z,94539.22
2023-01-23T13:31:35.507Z,94536.00
2023-01-23T13:34:15.403Z,94548.47
2023-01-23T13:36:44.485Z,94588.97
2023-01-23T13:39:28.379Z,94577.28
2023-01-23T13:42:45.709Z,94609.06
2023-01-23T13:45:31.187Z,94616.66
2023-01-23T14:22:37.189Z,94620.72
2023-01-23T14:25:15.065Z,94609.06
2023-01-23T14:27:52.588Z,94594.16
2023-01-23T14:30:24.707Z,94589.63
2023-01-23T14:32:52.752Z,94588.97
2023-01-23T14:35:26.129Z,94600.63
2023-01-23T14:37:59.203Z,94600.81
2023-01-23T14:40:35.183Z,94600.63
2023-01-23T14:43:09.726Z,94583.16
2023-01-23T14:45:39.189Z,94568.69
2023-01-23T14:48:14.720Z,94584.94
2023-01-23T14:50:42.963Z,94573.72
2023-01-23T14:53:15.937Z,94578.91
2023-01-23T14:55:47.282Z,94588.97
2023-01-23T14:58:22.231Z,94583.97
2023-01-23T15:00:51.006Z,94584.41
2023-01-23T15:03:37.969Z,94591.56
2023-01-23T15:06:10.759Z,94596.41
2023-01-23T15:08:40.265Z,94594.81
2023-01-23T15:11:12.036Z,94600.97
2023-01-23T15:13:48.353Z,94624.94
2023-01-23T15:16:20.726Z,94620.06
2023-01-23T15:19:00.638Z,94616.84
2023-01-23T15:21:34.956Z,94625.91
2023-01-23T15:24:23.070Z,94630.44
2023-01-23T15:27:23.604Z,94631.72
2023-01-23T15:29:51.796Z,94649.56
2023-01-23T15:32:26.327Z,94647.28
2023-01-23T15:34:57.802Z,94649.56
2023-01-23T15:37:27.302Z,94662.69
2023-01-23T15:39:59.740Z,94674.03
2023-01-23T15:42:31.013Z,94673.88
2023-01-23T15:45:01.440Z,94691.41
2023-01-23T15:47:30.759Z,94675.31
2023-01-23T15:50:01.470Z,94686.50
2023-01-23T15:52:31.050Z,94667.69
2023-01-23T15:55:02.518Z,94685.56
2023-01-23T15:57:30.417Z,94695.78
2023-01-23T15:59:58.205Z,94694.97
2023-01-23T16:02:31.489Z,94700.78
2023-01-23T16:05:01.103Z,94707.28
2023-01-23T16:07:34.433Z,94719.91
2023-01-23T16:10:04.447Z,94725.91
2023-01-23T16:12:32.852Z,94690.59
2023-01-23T16:15:00.748Z,94684.59
2023-01-23T16:17:28.625Z,94697.56
2023-01-23T16:19:56.496Z,94709.22
2023-01-23T16:22:29.173Z,94692.19
2023-01-23T16:24:58.373Z,94693.19
2023-01-23T16:27:28.297Z,94686.50
2023-01-23T16:29:56.444Z,94682.97
2023-01-23T16:32:25.149Z,94691.56
2023-01-23T16:34:53.169Z,94674.50
2023-01-23T16:37:21.169Z,94656.03
2023-01-23T16:39:49.067Z,94646.00
2023-01-23T16:42:23.367Z,94623.97
2023-01-23T16:44:52.614Z,94625.75
2023-01-23T16:47:20.536Z,94619.25
2023-01-23T16:49:53.337Z,94600.63
2023-01-23T16:52:25.979Z,94586.38
2023-01-23T16:54:55.528Z,94585.56
2023-01-23T16:57:24.219Z,94568.88
2023-01-23T16:59:56.349Z,94565.63
2023-01-23T17:02:29.300Z,94578.91
2023-01-23T17:04:57.290Z,94574.56
2023-01-23T17:07:25.058Z,94578.59
2023-01-23T17:09:52.875Z,94576.97
2023-01-23T17:12:23.344Z,94574.69
2023-01-23T17:14:53.557Z,94581.50
2023-01-23T17:17:29.119Z,94620.06
2023-01-23T17:20:07.967Z,94625.09
2023-01-23T17:22:39.416Z,94632.72
2023-01-23T17:25:14.446Z,94661.22
2023-01-23T17:27:45.833Z,94669.66
2023-01-23T17:30:19.295Z,94687.03
2023-01-23T17:32:49.758Z,94712.63
2023-01-23T17:35:22.759Z,94743.59
2023-01-23T17:37:51.173Z,94732.56
2023-01-23T17:40:19.430Z,94751.22
2023-01-23T17:42:47.326Z,94762.22
2023-01-23T17:45:17.824Z,94805.88
2023-01-23T17:47:48.173Z,94811.72
2023-01-23T17:50:20.727Z,94823.41
2023-01-23T17:52:50.660Z,94824.38
2023-01-23T17:55:20.689Z,94836.03
2023-01-23T17:57:49.045Z,94851.13
2023-01-23T18:00:20.811Z,94850.47
2023-01-23T18:02:51.168Z,94854.53
2023-01-23T18:05:19.138Z,94871.41
2023-01-23T18:07:53.711Z,94877.91
2023-01-23T18:10:24.563Z,94873.03
2023-01-23T18:13:00.768Z,94885.03
2023-01-23T18:15:37.855Z,94872.22
2023-01-23T18:18:19.279Z,94862.81
2023-01-23T18:20:48.325Z,94884.06
2023-01-23T18:23:16.758Z,94869.47
2023-01-23T18:25:46.644Z,94869.47
2023-01-23T18:28:20.284Z,94896.44
2023-01-23T18:31:00.160Z,94897.41
2023-01-23T18:33:49.438Z,94890.72
2023-01-23T18:36:26.313Z,94873.03
2023-01-23T18:39:09.901Z,94885.69
2023-01-23T18:41:41.784Z,94882.13
2023-01-23T18:44:17.521Z,94883.25
2023-01-23T18:46:47.187Z,94877.91
2023-01-23T18:49:27.779Z,94879.84
2023-01-23T18:52:09.051Z,94888.28
2023-01-23T18:54:42.049Z,94871.41
2023-01-23T18:57:24.452Z,94866.22
2023-01-23T19:00:02.602Z,94871.41
2023-01-23T19:02:40.460Z,94869.78
2023-01-23T19:05:27.659Z,94877.25
2023-01-23T19:07:56.412Z,94886.66
2023-01-23T19:10:27.106Z,94868.16
2023-01-23T19:13:09.119Z,94850.97
2023-01-23T19:15:45.609Z,94864.59
2023-01-23T19:18:38.789Z,94854.53
2023-01-23T19:21:18.048Z,94848.06
2023-01-23T19:23:52.661Z,94842.88
2023-01-23T19:26:21.354Z,94844.81
2023-01-23T19:28:50.744Z,94846.91
2023-01-23T19:31:23.047Z,94871.75
2023-01-23T19:33:52.586Z,94871.41
2023-01-23T19:36:21.724Z,94845.28
2023-01-23T19:38:49.683Z,94846.28
2023-01-23T19:41:20.748Z,94849.69
2023-01-23T19:43:50.431Z,94842.88
2023-01-23T19:46:19.057Z,94839.63
2023-01-23T19:48:47.000Z,94838.47
2023-01-23T19:51:19.539Z,94853.56
2023-01-23T19:53:47.757Z,94865.75
2023-01-23T19:56:18.911Z,94862.97
2023-01-23T19:58:47.671Z,94885.69
2023-01-23T20:01:22.876Z,94867.19
2023-01-23T20:03:51.197Z,94880.50
2023-01-23T20:06:20.606Z,94906.81
2023-01-23T20:08:48.433Z,94899.03
2023-01-23T20:11:16.564Z,94916.06
2023-01-23T20:13:44.383Z,94912.00
2023-01-23T20:16:18.028Z,94907.09
2023-01-23T20:18:46.795Z,94919.31
2023-01-23T20:21:15.278Z,94921.25
2023-01-23T20:23:44.598Z,94932.13
2023-01-23T20:26:12.533Z,94963.94
2023-01-23T20:28:40.878Z,94991.06
2023-01-23T20:31:11.159Z,95000.63
2023-01-23T20:33:39.169Z,94999.00
2023-01-23T20:36:08.032Z,94997.88
2023-01-23T20:38:35.893Z,94997.88
2023-01-23T20:41:06.039Z,95018.84
2023-01-23T20:43:34.141Z,95051.81
2023-01-23T20:46:02.539Z,95041.91
2023-01-23T20:48:34.773Z,95062.06
2023-01-23T20:51:03.124Z,95080.41
2023-01-23T20:53:29.955Z,95099.91
2023-01-23T20:55:59.596Z,95097.97
2023-01-23T20:58:46.703Z,95117.94
2023-01-23T21:01:16.932Z,95126.59
2023-01-23T21:03:46.638Z,95153.72
2023-01-23T21:06:16.448Z,95163.16
2023-01-23T21:08:44.661Z,95164.28
2023-01-23T21:11:14.720Z,95183.31
2023-01-23T21:13:44.586Z,95186.56
2023-01-23T21:16:14.635Z,95202.81
2023-01-23T21:18:44.803Z,95203.63
2023-01-23T21:21:14.692Z,95227.88
2023-01-23T21:23:42.813Z,95243.19
2023-01-23T21:26:11.213Z,95250.66
2023-01-23T21:28:39.412Z,95249.34
2023-01-23T21:31:13.734Z,95260.91
2023-01-23T21:33:44.090Z,95245.78
2023-01-23T21:36:12.637Z,95271.13
2023-01-23T21:38:40.777Z,95284.47
2023-01-23T21:41:08.567Z,95287.09
2023-01-23T21:43:36.370Z,95304.16
2023-01-23T21:46:04.822Z,95311.50
2023-01-23T21:48:35.382Z,95320.59
2023-01-23T21:51:08.227Z,95339.47
2023-01-23T21:53:37.668Z,95336.22
2023-01-23T21:56:06.829Z,95320.91
2023-01-23T21:58:34.911Z,95339.47
2023-01-23T22:01:25.362Z,95357.41
2023-01-23T22:03:54.595Z,95361.63
2023-01-23T22:06:22.696Z,95374.00
2023-01-23T22:08:50.581Z,95399.38
2023-01-23T22:11:18.648Z,95408.66
2023-01-23T22:13:47.068Z,95407.84
2023-01-23T22:16:15.387Z,95408.66
2023-01-23T22:18:43.395Z,95417.94
2023-01-23T22:21:13.074Z,95428.84
2023-01-23T22:23:41.299Z,95425.44
2023-01-23T22:26:11.243Z,95435.69
2023-01-23T22:28:39.652Z,95433.25
2023-01-23T22:31:11.038Z,95461.13
2023-01-23T22:33:41.137Z,95448.25
2023-01-23T22:36:12.917Z,95460.97
2023-01-23T22:38:42.246Z,95445.78
2023-01-23T22:41:14.245Z,95470.41
2023-01-23T22:43:42.185Z,95489.13
2023-01-23T22:46:13.994Z,95490.91
2023-01-23T22:48:42.447Z,95485.72
2023-01-23T22:51:15.944Z,95508.34
2023-01-23T22:53:45.691Z,95534.06
2023-01-23T22:56:14.106Z,95522.84
2023-01-23T22:58:45.767Z,95542.22
2023-01-23T23:01:14.078Z,95559.16
2023-01-23T23:03:42.268Z,95556.06
2023-01-23T23:06:12.811Z,95563.28
2023-01-23T23:08:48.142Z,95579.72
2023-01-23T23:11:18.122Z,95592.28
2023-01-23T23:13:46.098Z,95601.41
2023-01-23T23:16:17.791Z,95597.47
2023-01-23T23:18:46.751Z,95618.34
2023-01-23T23:21:16.599Z,95611.81
2023-01-23T23:23:46.142Z,95631.06
2023-01-23T23:26:14.695Z,95643.13
2023-01-23T23:28:43.143Z,95608.50
2023-01-23T23:31:11.297Z,95627.00
2023-01-23T23:33:39.410Z,95642.31
2023-01-23T23:36:08.196Z,95633.53
2023-01-23T23:38:36.141Z,95646.38
2023-01-23T23:41:07.138Z,95644.75
2023-01-23T23:43:35.814Z,95658.59
2023-01-23T23:46:06.188Z,95657.31
2023-01-23T23:48:35.406Z,95659.91
2023-01-23T23:51:04.960Z,95654.06
2023-01-23T23:53:33.171Z,95682.25
2023-01-23T23:56:01.116Z,95689.78
2023-01-23T23:58:30.341Z,95688.00
